sensor_id;sensor_type;location;lat;lon;timestamp;P1;durP1;ratioP1;P2;durP2;ratioP2
8540;SDS011;4308;51.294;6.590;2023-02-22T00:01:48;89.67;;;32.60;;
8540;SDS011;4308;51.294;6.590;2023-02-22T00:04:17;96.97;;;34.43;;
8540;SDS011;4308;51.294;6.590;2023-02-22T00:06:44;96.20;;;34.33;;
8540;SDS011;4308;51.294;6.590;2023-02-22T00:09:12;94.30;;;34.30;;
8540;SDS011;4308;51.294;6.590;2023-02-22T00:11:44;103.50;;;33.93;;
8540;SDS011;4308;51.294;6.590;2023-02-22T00:14:11;94.00;;;31.90;;
8540;SDS011;4308;51.294;6.590;2023-02-22T00:16:39;101.57;;;32.53;;
8540;SDS011;4308;51.294;6.590;2023-02-22T00:19:07;99.00;;;32.90;;
8540;SDS011;4308;51.294;6.590;2023-02-22T00:21:34;109.70;;;35.90;;
8540;SDS011;4308;51.294;6.590;2023-02-22T00:24:02;115.00;;;36.00;;
8540;SDS011;4308;51.294;6.590;2023-02-22T00:26:31;109.20;;;36.00;;
8540;SDS011;4308;51.294;6.590;2023-02-22T00:28:59;123.23;;;36.13;;
8540;SDS011;4308;51.294;6.590;2023-02-22T00:31:27;106.47;;;36.97;;
8540;SDS011;4308;51.294;6.590;2023-02-22T00:33:54;122.00;;;38.13;;
8540;SDS011;4308;51.294;6.590;2023-02-22T00:36:22;131.20;;;38.97;;
8540;SDS011;4308;51.294;6.590;2023-02-22T00:38:49;113.47;;;36.53;;
8540;SDS011;4308;51.294;6.590;2023-02-22T00:41:17;115.63;;;39.07;;
8540;SDS011;4308;51.294;6.590;2023-02-22T00:43:45;135.57;;;38.70;;
8540;SDS011;4308;51.294;6.590;2023-02-22T00:46:12;122.53;;;38.27;;
8540;SDS011;4308;51.294;6.590;2023-02-22T00:48:40;114.27;;;37.20;;
8540;SDS011;4308;51.294;6.590;2023-02-22T00:51:08;126.97;;;39.63;;
8540;SDS011;4308;51.294;6.590;2023-02-22T00:53:35;159.03;;;39.77;;
8540;SDS011;4308;51.294;6.590;2023-02-22T00:56:03;117.33;;;36.97;;
8540;SDS011;4308;51.294;6.590;2023-02-22T00:58:31;129.10;;;39.60;;
8540;SDS011;4308;51.294;6.590;2023-02-22T01:00:59;117.43;;;36.37;;
8540;SDS011;4308;51.294;6.590;2023-02-22T01:03:27;135.43;;;37.87;;
8540;SDS011;4308;51.294;6.590;2023-02-22T01:05:54;116.10;;;36.37;;
8540;SDS011;4308;51.294;6.590;2023-02-22T01:08:22;113.90;;;36.30;;
8540;SDS011;4308;51.294;6.590;2023-02-22T01:10:49;117.97;;;36.43;;
8540;SDS011;4308;51.294;6.590;2023-02-22T01:13:17;173.10;;;37.37;;
8540;SDS011;4308;51.294;6.590;2023-02-22T01:15:44;125.93;;;36.93;;
8540;SDS011;4308;51.294;6.590;2023-02-22T01:18:12;136.80;;;36.37;;
8540;SDS011;4308;51.294;6.590;2023-02-22T01:20:39;120.03;;;37.97;;
8540;SDS011;4308;51.294;6.590;2023-02-22T01:23:07;134.30;;;37.40;;
8540;SDS011;4308;51.294;6.590;2023-02-22T01:25:35;165.13;;;36.77;;
8540;SDS011;4308;51.294;6.590;2023-02-22T01:28:03;148.77;;;37.70;;
8540;SDS011;4308;51.294;6.590;2023-02-22T01:30:32;161.00;;;36.50;;
8540;SDS011;4308;51.294;6.590;2023-02-22T01:33:00;154.43;;;35.23;;
8540;SDS011;4308;51.294;6.590;2023-02-22T01:35:29;184.40;;;35.53;;
8540;SDS011;4308;51.294;6.590;2023-02-22T01:37:57;163.77;;;37.87;;
8540;SDS011;4308;51.294;6.590;2023-02-22T01:40:32;175.37;;;38.67;;
8540;SDS011;4308;51.294;6.590;2023-02-22T01:43:02;230.60;;;38.73;;
8540;SDS011;4308;51.294;6.590;2023-02-22T01:48:04;169.67;;;34.50;;
8540;SDS011;4308;51.294;6.590;2023-02-22T01:50:34;174.40;;;35.87;;
8540;SDS011;4308;51.294;6.590;2023-02-22T01:53:03;186.40;;;37.63;;
8540;SDS011;4308;51.294;6.590;2023-02-22T01:55:31;156.93;;;33.80;;
8540;SDS011;4308;51.294;6.590;2023-02-22T01:58:00;212.37;;;34.63;;
8540;SDS011;4308;51.294;6.590;2023-02-22T02:00:28;189.07;;;30.93;;
8540;SDS011;4308;51.294;6.590;2023-02-22T02:03:01;197.33;;;32.33;;
8540;SDS011;4308;51.294;6.590;2023-02-22T02:05:30;185.73;;;30.30;;
8540;SDS011;4308;51.294;6.590;2023-02-22T02:08:00;159.07;;;31.87;;
8540;SDS011;4308;51.294;6.590;2023-02-22T02:10:31;207.07;;;30.10;;
8540;SDS011;4308;51.294;6.590;2023-02-22T02:12:58;201.27;;;28.63;;
8540;SDS011;4308;51.294;6.590;2023-02-22T02:15:32;193.27;;;28.57;;
8540;SDS011;4308;51.294;6.590;2023-02-22T02:18:01;121.00;;;28.73;;
8540;SDS011;4308;51.294;6.590;2023-02-22T02:36:37;113.33;;;25.67;;
8540;SDS011;4308;51.294;6.590;2023-02-22T02:39:12;105.77;;;22.63;;
8540;SDS011;4308;51.294;6.590;2023-02-22T02:41:46;136.40;;;26.53;;
8540;SDS011;4308;51.294;6.590;2023-02-22T02:44:20;129.87;;;27.00;;
8540;SDS011;4308;51.294;6.590;2023-02-22T02:46:50;146.57;;;26.10;;
8540;SDS011;4308;51.294;6.590;2023-02-22T02:49:24;166.83;;;25.50;;
8540;SDS011;4308;51.294;6.590;2023-02-22T02:51:53;130.73;;;25.40;;
8540;SDS011;4308;51.294;6.590;2023-02-22T02:54:22;155.33;;;25.30;;
8540;SDS011;4308;51.294;6.590;2023-02-22T02:56:50;148.70;;;24.67;;
8540;SDS011;4308;51.294;6.590;2023-02-22T03:09:23;114.77;;;22.83;;
8540;SDS011;4308;51.294;6.590;2023-02-22T03:14:38;93.87;;;22.90;;
8540;SDS011;4308;51.294;6.590;2023-02-22T03:17:10;116.57;;;22.93;;
8540;SDS011;4308;51.294;6.590;2023-02-22T03:19:50;130.60;;;25.90;;
8540;SDS011;4308;51.294;6.590;2023-02-22T03:22:28;130.03;;;24.10;;
8540;SDS011;4308;51.294;6.590;2023-02-22T03:24:59;109.27;;;21.77;;
8540;SDS011;4308;51.294;6.590;2023-02-22T03:27:28;124.53;;;23.20;;
8540;SDS011;4308;51.294;6.590;2023-02-22T03:29:59;103.23;;;22.83;;
8540;SDS011;4308;51.294;6.590;2023-02-22T03:32:30;103.23;;;21.53;;
8540;SDS011;4308;51.294;6.590;2023-02-22T03:35:07;92.87;;;21.70;;
8540;SDS011;4308;51.294;6.590;2023-02-22T03:37:39;87.10;;;21.30;;
8540;SDS011;4308;51.294;6.590;2023-02-22T03:40:10;177.67;;;22.77;;
8540;SDS011;4308;51.294;6.590;2023-02-22T03:42:38;103.97;;;22.50;;
8540;SDS011;4308;51.294;6.590;2023-02-22T03:45:07;132.63;;;23.40;;
8540;SDS011;4308;51.294;6.590;2023-02-22T03:47:38;99.10;;;21.63;;
8540;SDS011;4308;51.294;6.590;2023-02-22T03:52:38;100.17;;;21.93;;
8540;SDS011;4308;51.294;6.590;2023-02-22T03:55:05;115.77;;;21.67;;
8540;SDS011;4308;51.294;6.590;2023-02-22T03:57:34;101.20;;;23.37;;
8540;SDS011;4308;51.294;6.590;2023-02-22T04:00:05;117.93;;;24.13;;
8540;SDS011;4308;51.294;6.590;2023-02-22T04:02:33;90.83;;;22.80;;
8540;SDS011;4308;51.294;6.590;2023-02-22T04:05:01;80.87;;;22.80;;
8540;SDS011;4308;51.294;6.590;2023-02-22T04:07:28;84.63;;;24.67;;
8540;SDS011;4308;51.294;6.590;2023-02-22T04:09:56;67.13;;;21.27;;
8540;SDS011;4308;51.294;6.590;2023-02-22T04:12:23;86.80;;;23.27;;
8540;SDS011;4308;51.294;6.590;2023-02-22T04:14:51;83.83;;;24.00;;
8540;SDS011;4308;51.294;6.590;2023-02-22T04:17:18;68.60;;;20.93;;
8540;SDS011;4308;51.294;6.590;2023-02-22T04:19:46;86.40;;;21.27;;
8540;SDS011;4308;51.294;6.590;2023-02-22T04:22:13;73.73;;;21.77;;
8540;SDS011;4308;51.294;6.590;2023-02-22T04:24:41;67.77;;;20.57;;
8540;SDS011;4308;51.294;6.590;2023-02-22T04:27:09;76.47;;;22.40;;
8540;SDS011;4308;51.294;6.590;2023-02-22T04:29:36;61.43;;;21.17;;
8540;SDS011;4308;51.294;6.590;2023-02-22T04:32:04;66.73;;;21.80;;
8540;SDS011;4308;51.294;6.590;2023-02-22T04:34:32;68.10;;;21.20;;
8540;SDS011;4308;51.294;6.590;2023-02-22T04:37:00;78.87;;;22.13;;
8540;SDS011;4308;51.294;6.590;2023-02-22T04:39:27;63.13;;;20.63;;
8540;SDS011;4308;51.294;6.590;2023-02-22T04:41:55;55.37;;;20.33;;
8540;SDS011;4308;51.294;6.590;2023-02-22T04:44:23;64.70;;;21.20;;
8540;SDS011;4308;51.294;6.590;2023-02-22T04:46:50;63.17;;;21.80;;
8540;SDS011;4308;51.294;6.590;2023-02-22T04:49:18;52.50;;;19.23;;
8540;SDS011;4308;51.294;6.590;2023-02-22T04:51:45;68.43;;;20.97;;
8540;SDS011;4308;51.294;6.590;2023-02-22T04:54:13;57.87;;;20.90;;
8540;SDS011;4308;51.294;6.590;2023-02-22T04:56:40;56.83;;;20.73;;
8540;SDS011;4308;51.294;6.590;2023-02-22T04:59:08;73.10;;;21.67;;
8540;SDS011;4308;51.294;6.590;2023-02-22T05:01:36;53.80;;;19.37;;
8540;SDS011;4308;51.294;6.590;2023-02-22T05:04:04;62.00;;;20.30;;
8540;SDS011;4308;51.294;6.590;2023-02-22T05:06:32;51.90;;;20.43;;
8540;SDS011;4308;51.294;6.590;2023-02-22T05:08:59;43.40;;;19.17;;
8540;SDS011;4308;51.294;6.590;2023-02-22T05:11:30;50.73;;;18.77;;
8540;SDS011;4308;51.294;6.590;2023-02-22T05:13:57;41.93;;;17.03;;
8540;SDS011;4308;51.294;6.590;2023-02-22T05:16:25;46.33;;;18.00;;
8540;SDS011;4308;51.294;6.590;2023-02-22T05:18:53;51.80;;;17.10;;
8540;SDS011;4308;51.294;6.590;2023-02-22T05:21:21;59.03;;;17.27;;
8540;SDS011;4308;51.294;6.590;2023-02-22T05:23:49;52.53;;;16.87;;
8540;SDS011;4308;51.294;6.590;2023-02-22T05:26:16;47.20;;;17.63;;
8540;SDS011;4308;51.294;6.590;2023-02-22T05:28:44;34.17;;;16.93;;
8540;SDS011;4308;51.294;6.590;2023-02-22T05:31:12;43.60;;;18.30;;
8540;SDS011;4308;51.294;6.590;2023-02-22T05:33:39;40.23;;;17.00;;
8540;SDS011;4308;51.294;6.590;2023-02-22T05:36:07;49.30;;;19.53;;
8540;SDS011;4308;51.294;6.590;2023-02-22T05:38:35;60.03;;;19.20;;
8540;SDS011;4308;51.294;6.590;2023-02-22T05:41:03;57.10;;;18.67;;
8540;SDS011;4308;51.294;6.590;2023-02-22T05:43:31;54.53;;;19.47;;
8540;SDS011;4308;51.294;6.590;2023-02-22T05:45:58;47.50;;;19.70;;
8540;SDS011;4308;51.294;6.590;2023-02-22T05:48:26;48.83;;;20.13;;
8540;SDS011;4308;51.294;6.590;2023-02-22T05:50:53;46.40;;;18.87;;
8540;SDS011;4308;51.294;6.590;2023-02-22T05:53:21;50.57;;;19.77;;
8540;SDS011;4308;51.294;6.590;2023-02-22T05:55:49;48.10;;;19.07;;
8540;SDS011;4308;51.294;6.590;2023-02-22T05:58:17;43.03;;;19.17;;
8540;SDS011;4308;51.294;6.590;2023-02-22T06:00:44;54.57;;;20.17;;
8540;SDS011;4308;51.294;6.590;2023-02-22T06:03:12;53.27;;;19.87;;
8540;SDS011;4308;51.294;6.590;2023-02-22T06:05:40;60.47;;;21.07;;
8540;SDS011;4308;51.294;6.590;2023-02-22T06:08:07;51.70;;;22.03;;
8540;SDS011;4308;51.294;6.590;2023-02-22T06:10:35;51.13;;;20.27;;
8540;SDS011;4308;51.294;6.590;2023-02-22T06:13:03;46.83;;;21.87;;
8540;SDS011;4308;51.294;6.590;2023-02-22T06:15:31;54.40;;;20.57;;
8540;SDS011;4308;51.294;6.590;2023-02-22T06:17:59;66.50;;;22.33;;
8540;SDS011;4308;51.294;6.590;2023-02-22T06:20:27;51.10;;;21.50;;
8540;SDS011;4308;51.294;6.590;2023-02-22T06:22:56;72.23;;;23.07;;
8540;SDS011;4308;51.294;6.590;2023-02-22T06:25:25;52.00;;;21.67;;
8540;SDS011;4308;51.294;6.590;2023-02-22T06:27:53;56.43;;;21.50;;
8540;SDS011;4308;51.294;6.590;2023-02-22T06:30:21;59.07;;;22.43;;
8540;SDS011;4308;51.294;6.590;2023-02-22T06:32:49;55.43;;;22.60;;
8540;SDS011;4308;51.294;6.590;2023-02-22T06:35:17;55.80;;;22.97;;
8540;SDS011;4308;51.294;6.590;2023-02-22T06:37:45;65.87;;;24.83;;
8540;SDS011;4308;51.294;6.590;2023-02-22T06:40:13;69.63;;;22.57;;
8540;SDS011;4308;51.294;6.590;2023-02-22T06:42:40;57.73;;;21.73;;
8540;SDS011;4308;51.294;6.590;2023-02-22T06:45:08;68.93;;;22.83;;
8540;SDS011;4308;51.294;6.590;2023-02-22T06:47:37;57.67;;;22.83;;
8540;SDS011;4308;51.294;6.590;2023-02-22T06:50:04;73.57;;;22.83;;
8540;SDS011;4308;51.294;6.590;2023-02-22T06:52:32;86.77;;;24.43;;
8540;SDS011;4308;51.294;6.590;2023-02-22T06:54:59;75.80;;;23.80;;
8540;SDS011;4308;51.294;6.590;2023-02-22T06:57:27;69.33;;;23.37;;
8540;SDS011;4308;51.294;6.590;2023-02-22T06:59:54;113.77;;;27.23;;
8540;SDS011;4308;51.294;6.590;2023-02-22T07:02:22;90.07;;;26.07;;
8540;SDS011;4308;51.294;6.590;2023-02-22T07:04:49;88.93;;;26.53;;
8540;SDS011;4308;51.294;6.590;2023-02-22T07:07:17;119.13;;;27.73;;
8540;SDS011;4308;51.294;6.590;2023-02-22T07:09:45;98.20;;;27.83;;
8540;SDS011;4308;51.294;6.590;2023-02-22T07:12:13;100.10;;;27.17;;
8540;SDS011;4308;51.294;6.590;2023-02-22T07:14:40;106.97;;;29.63;;
8540;SDS011;4308;51.294;6.590;2023-02-22T07:17:08;87.10;;;30.40;;
8540;SDS011;4308;51.294;6.590;2023-02-22T07:19:35;96.00;;;32.23;;
8540;SDS011;4308;51.294;6.590;2023-02-22T07:22:03;96.77;;;31.63;;
8540;SDS011;4308;51.294;6.590;2023-02-22T07:24:30;80.57;;;30.17;;
8540;SDS011;4308;51.294;6.590;2023-02-22T07:26:59;81.10;;;31.07;;
8540;SDS011;4308;51.294;6.590;2023-02-22T07:29:26;69.30;;;27.73;;
8540;SDS011;4308;51.294;6.590;2023-02-22T07:31:54;73.80;;;29.23;;
8540;SDS011;4308;51.294;6.590;2023-02-22T07:34:22;75.07;;;30.67;;
8540;SDS011;4308;51.294;6.590;2023-02-22T07:36:49;77.57;;;29.40;;
8540;SDS011;4308;51.294;6.590;2023-02-22T07:39:17;76.77;;;31.07;;
8540;SDS011;4308;51.294;6.590;2023-02-22T07:41:45;65.40;;;28.30;;
8540;SDS011;4308;51.294;6.590;2023-02-22T07:44:12;61.93;;;28.30;;
8540;SDS011;4308;51.294;6.590;2023-02-22T07:46:40;65.23;;;28.10;;
8540;SDS011;4308;51.294;6.590;2023-02-22T07:49:08;50.87;;;26.70;;
8540;SDS011;4308;51.294;6.590;2023-02-22T07:51:35;61.63;;;28.77;;
8540;SDS011;4308;51.294;6.590;2023-02-22T07:54:03;55.23;;;27.73;;
8540;SDS011;4308;51.294;6.590;2023-02-22T07:56:30;60.77;;;28.53;;
8540;SDS011;4308;51.294;6.590;2023-02-22T07:58:58;64.83;;;29.30;;
8540;SDS011;4308;51.294;6.590;2023-02-22T08:01:25;54.87;;;27.63;;
8540;SDS011;4308;51.294;6.590;2023-02-22T08:03:53;61.93;;;28.47;;
8540;SDS011;4308;51.294;6.590;2023-02-22T08:06:21;58.67;;;28.57;;
8540;SDS011;4308;51.294;6.590;2023-02-22T08:08:48;58.13;;;28.67;;
8540;SDS011;4308;51.294;6.590;2023-02-22T08:11:16;62.77;;;29.80;;
8540;SDS011;4308;51.294;6.590;2023-02-22T08:13:44;59.10;;;28.67;;
8540;SDS011;4308;51.294;6.590;2023-02-22T08:16:12;52.30;;;26.63;;
8540;SDS011;4308;51.294;6.590;2023-02-22T08:18:39;51.63;;;27.27;;
8540;SDS011;4308;51.294;6.590;2023-02-22T08:21:07;46.87;;;24.97;;
8540;SDS011;4308;51.294;6.590;2023-02-22T08:23:34;45.00;;;23.27;;
8540;SDS011;4308;51.294;6.590;2023-02-22T08:26:03;41.70;;;23.07;;
8540;SDS011;4308;51.294;6.590;2023-02-22T08:28:30;43.13;;;23.13;;
8540;SDS011;4308;51.294;6.590;2023-02-22T08:30:58;40.67;;;22.80;;
8540;SDS011;4308;51.294;6.590;2023-02-22T08:33:26;43.20;;;22.57;;
8540;SDS011;4308;51.294;6.590;2023-02-22T08:35:53;44.10;;;23.83;;
8540;SDS011;4308;51.294;6.590;2023-02-22T08:38:22;36.93;;;20.80;;
8540;SDS011;4308;51.294;6.590;2023-02-22T08:40:50;43.17;;;24.17;;
8540;SDS011;4308;51.294;6.590;2023-02-22T08:43:18;39.60;;;21.93;;
8540;SDS011;4308;51.294;6.590;2023-02-22T08:45:46;42.57;;;22.70;;
8540;SDS011;4308;51.294;6.590;2023-02-22T08:48:14;34.70;;;21.73;;
8540;SDS011;4308;51.294;6.590;2023-02-22T08:50:42;35.17;;;22.13;;
8540;SDS011;4308;51.294;6.590;2023-02-22T08:53:10;36.97;;;21.80;;
8540;SDS011;4308;51.294;6.590;2023-02-22T08:55:38;35.70;;;20.33;;
8540;SDS011;4308;51.294;6.590;2023-02-22T08:58:06;35.97;;;21.67;;
8540;SDS011;4308;51.294;6.590;2023-02-22T09:00:34;33.23;;;20.60;;
8540;SDS011;4308;51.294;6.590;2023-02-22T09:03:02;37.73;;;21.70;;
8540;SDS011;4308;51.294;6.590;2023-02-22T09:05:30;29.90;;;20.03;;
8540;SDS011;4308;51.294;6.590;2023-02-22T09:07:58;32.77;;;19.93;;
8540;SDS011;4308;51.294;6.590;2023-02-22T09:10:27;26.93;;;17.73;;
8540;SDS011;4308;51.294;6.590;2023-02-22T09:12:55;29.47;;;18.07;;
8540;SDS011;4308;51.294;6.590;2023-02-22T09:15:24;25.13;;;16.83;;
8540;SDS011;4308;51.294;6.590;2023-02-22T09:17:52;31.27;;;17.50;;
8540;SDS011;4308;51.294;6.590;2023-02-22T09:20:20;27.07;;;17.20;;
8540;SDS011;4308;51.294;6.590;2023-02-22T09:22:48;29.10;;;17.37;;
8540;SDS011;4308;51.294;6.590;2023-02-22T09:25:16;30.47;;;16.63;;
8540;SDS011;4308;51.294;6.590;2023-02-22T09:27:45;23.47;;;14.70;;
8540;SDS011;4308;51.294;6.590;2023-02-22T09:30:22;26.57;;;15.10;;
8540;SDS011;4308;51.294;6.590;2023-02-22T09:32:51;22.00;;;14.93;;
8540;SDS011;4308;51.294;6.590;2023-02-22T09:35:19;23.13;;;13.63;;
8540;SDS011;4308;51.294;6.590;2023-02-22T09:37:46;23.60;;;14.83;;
8540;SDS011;4308;51.294;6.590;2023-02-22T09:40:17;24.50;;;15.67;;
8540;SDS011;4308;51.294;6.590;2023-02-22T09:42:47;19.60;;;13.90;;
8540;SDS011;4308;51.294;6.590;2023-02-22T09:45:21;19.80;;;13.77;;
8540;SDS011;4308;51.294;6.590;2023-02-22T09:47:54;20.77;;;13.53;;
8540;SDS011;4308;51.294;6.590;2023-02-22T09:50:32;20.70;;;13.93;;
8540;SDS011;4308;51.294;6.590;2023-02-22T09:53:06;20.50;;;14.30;;
8540;SDS011;4308;51.294;6.590;2023-02-22T09:55:38;21.43;;;14.83;;
8540;SDS011;4308;51.294;6.590;2023-02-22T09:58:20;19.17;;;13.27;;
8540;SDS011;4308;51.294;6.590;2023-02-22T10:00:50;22.50;;;14.60;;
8540;SDS011;4308;51.294;6.590;2023-02-22T10:03:35;25.20;;;14.63;;
8540;SDS011;4308;51.294;6.590;2023-02-22T10:08:32;19.97;;;12.73;;
8540;SDS011;4308;51.294;6.590;2023-02-22T10:11:04;21.13;;;13.33;;
8540;SDS011;4308;51.294;6.590;2023-02-22T10:13:54;20.90;;;12.77;;
8540;SDS011;4308;51.294;6.590;2023-02-22T10:19:10;19.07;;;12.00;;
8540;SDS011;4308;51.294;6.590;2023-02-22T10:21:46;17.53;;;11.37;;
8540;SDS011;4308;51.294;6.590;2023-02-22T10:24:26;19.07;;;11.93;;
8540;SDS011;4308;51.294;6.590;2023-02-22T10:26:58;22.77;;;13.23;;
8540;SDS011;4308;51.294;6.590;2023-02-22T10:31:58;17.30;;;11.90;;
8540;SDS011;4308;51.294;6.590;2023-02-22T10:34:27;20.07;;;12.50;;
8540;SDS011;4308;51.294;6.590;2023-02-22T10:39:43;18.90;;;13.30;;
8540;SDS011;4308;51.294;6.590;2023-02-22T10:42:11;16.77;;;11.97;;
8540;SDS011;4308;51.294;6.590;2023-02-22T10:44:38;17.73;;;11.77;;
8540;SDS011;4308;51.294;6.590;2023-02-22T10:47:10;20.43;;;11.73;;
8540;SDS011;4308;51.294;6.590;2023-02-22T10:49:40;16.87;;;12.13;;
8540;SDS011;4308;51.294;6.590;2023-02-22T10:52:12;21.00;;;10.80;;
8540;SDS011;4308;51.294;6.590;2023-02-22T10:54:41;20.43;;;11.50;;
8540;SDS011;4308;51.294;6.590;2023-02-22T10:57:10;20.30;;;11.53;;
8540;SDS011;4308;51.294;6.590;2023-02-22T10:59:39;18.03;;;9.83;;
8540;SDS011;4308;51.294;6.590;2023-02-22T11:02:15;16.30;;;11.47;;
8540;SDS011;4308;51.294;6.590;2023-02-22T11:04:48;17.30;;;10.77;;
8540;SDS011;4308;51.294;6.590;2023-02-22T11:07:18;17.10;;;10.90;;
8540;SDS011;4308;51.294;6.590;2023-02-22T11:09:48;16.87;;;11.10;;
8540;SDS011;4308;51.294;6.590;2023-02-22T11:12:17;18.83;;;10.97;;
8540;SDS011;4308;51.294;6.590;2023-02-22T11:14:44;15.90;;;10.47;;
8540;SDS011;4308;51.294;6.590;2023-02-22T11:17:15;16.47;;;10.53;;
8540;SDS011;4308;51.294;6.590;2023-02-22T11:19:45;16.37;;;10.43;;
8540;SDS011;4308;51.294;6.590;2023-02-22T11:22:19;18.20;;;11.57;;
8540;SDS011;4308;51.294;6.590;2023-02-22T11:24:48;12.03;;;9.53;;
8540;SDS011;4308;51.294;6.590;2023-02-22T11:29:50;19.97;;;10.63;;
8540;SDS011;4308;51.294;6.590;2023-02-22T11:32:18;16.07;;;10.00;;
8540;SDS011;4308;51.294;6.590;2023-02-22T11:34:47;15.37;;;9.67;;
8540;SDS011;4308;51.294;6.590;2023-02-22T11:39:48;14.10;;;9.87;;
8540;SDS011;4308;51.294;6.590;2023-02-22T11:42:29;14.70;;;9.97;;
8540;SDS011;4308;51.294;6.590;2023-02-22T11:45:11;15.67;;;9.83;;
8540;SDS011;4308;51.294;6.590;2023-02-22T11:52:44;14.87;;;10.13;;
8540;SDS011;4308;51.294;6.590;2023-02-22T11:55:35;15.83;;;9.27;;
8540;SDS011;4308;51.294;6.590;2023-02-22T11:58:27;14.93;;;9.93;;
8540;SDS011;4308;51.294;6.590;2023-02-22T12:03:27;15.37;;;10.03;;
8540;SDS011;4308;51.294;6.590;2023-02-22T12:06:02;18.70;;;10.23;;
8540;SDS011;4308;51.294;6.590;2023-02-22T12:21:25;15.87;;;10.27;;
8540;SDS011;4308;51.294;6.590;2023-02-22T12:24:05;13.63;;;9.67;;
8540;SDS011;4308;51.294;6.590;2023-02-22T12:26:37;15.80;;;9.87;;
8540;SDS011;4308;51.294;6.590;2023-02-22T12:36:55;13.87;;;10.17;;
8540;SDS011;4308;51.294;6.590;2023-02-22T12:39:29;16.67;;;10.53;;
8540;SDS011;4308;51.294;6.590;2023-02-22T12:42:14;13.40;;;10.17;;
8540;SDS011;4308;51.294;6.590;2023-02-22T12:44:44;16.40;;;10.90;;
8540;SDS011;4308;51.294;6.590;2023-02-22T12:47:14;16.20;;;9.73;;
8540;SDS011;4308;51.294;6.590;2023-02-22T12:49:43;17.13;;;10.70;;
8540;SDS011;4308;51.294;6.590;2023-02-22T12:52:15;14.37;;;9.37;;
8540;SDS011;4308;51.294;6.590;2023-02-22T12:54:50;13.23;;;8.90;;
8540;SDS011;4308;51.294;6.590;2023-02-22T13:05:24;14.10;;;9.40;;
8540;SDS011;4308;51.294;6.590;2023-02-22T13:12:54;14.27;;;8.50;;
8540;SDS011;4308;51.294;6.590;2023-02-22T13:15:29;12.87;;;8.77;;
8540;SDS011;4308;51.294;6.590;2023-02-22T13:20:29;17.13;;;8.57;;
8540;SDS011;4308;51.294;6.590;2023-02-22T13:30:43;14.00;;;9.97;;
8540;SDS011;4308;51.294;6.590;2023-02-22T13:51:10;14.60;;;9.83;;
8540;SDS011;4308;51.294;6.590;2023-02-22T13:56:13;16.00;;;9.30;;
8540;SDS011;4308;51.294;6.590;2023-02-22T13:58:45;15.97;;;9.07;;
8540;SDS011;4308;51.294;6.590;2023-02-22T14:04:20;16.13;;;9.90;;
8540;SDS011;4308;51.294;6.590;2023-02-22T14:06:49;13.57;;;9.93;;
8540;SDS011;4308;51.294;6.590;2023-02-22T14:12:03;17.13;;;10.03;;
8540;SDS011;4308;51.294;6.590;2023-02-22T14:14:31;12.90;;;8.70;;
8540;SDS011;4308;51.294;6.590;2023-02-22T14:22:31;13.30;;;8.17;;
8540;SDS011;4308;51.294;6.590;2023-02-22T14:24:59;12.57;;;8.80;;
8540;SDS011;4308;51.294;6.590;2023-02-22T14:27:37;14.00;;;8.67;;
8540;SDS011;4308;51.294;6.590;2023-02-22T14:30:05;10.80;;;7.80;;
8540;SDS011;4308;51.294;6.590;2023-02-22T14:32:33;12.47;;;8.23;;
8540;SDS011;4308;51.294;6.590;2023-02-22T14:35:19;12.23;;;8.30;;
8540;SDS011;4308;51.294;6.590;2023-02-22T14:37:59;11.80;;;8.53;;
8540;SDS011;4308;51.294;6.590;2023-02-22T14:40:28;13.40;;;9.13;;
8540;SDS011;4308;51.294;6.590;2023-02-22T14:43:15;12.77;;;9.17;;
8540;SDS011;4308;51.294;6.590;2023-02-22T14:45:46;13.50;;;9.43;;
8540;SDS011;4308;51.294;6.590;2023-02-22T14:48:32;15.10;;;9.40;;
8540;SDS011;4308;51.294;6.590;2023-02-22T14:51:03;12.83;;;9.60;;
8540;SDS011;4308;51.294;6.590;2023-02-22T14:56:21;13.37;;;9.87;;
8540;SDS011;4308;51.294;6.590;2023-02-22T14:58:51;13.97;;;9.67;;
8540;SDS011;4308;51.294;6.590;2023-02-22T15:04:15;13.37;;;9.57;;
8540;SDS011;4308;51.294;6.590;2023-02-22T15:06:43;15.97;;;11.37;;
8540;SDS011;4308;51.294;6.590;2023-02-22T15:09:18;15.93;;;10.20;;
8540;SDS011;4308;51.294;6.590;2023-02-22T15:11:46;15.43;;;10.43;;
8540;SDS011;4308;51.294;6.590;2023-02-22T15:14:15;14.77;;;10.97;;
8540;SDS011;4308;51.294;6.590;2023-02-22T15:16:52;15.23;;;9.43;;
8540;SDS011;4308;51.294;6.590;2023-02-22T15:19:24;14.00;;;10.33;;
8540;SDS011;4308;51.294;6.590;2023-02-22T15:21:54;15.17;;;11.03;;
8540;SDS011;4308;51.294;6.590;2023-02-22T15:24:35;16.00;;;10.83;;
8540;SDS011;4308;51.294;6.590;2023-02-22T15:27:06;16.17;;;10.40;;
8540;SDS011;4308;51.294;6.590;2023-02-22T15:29:35;14.73;;;10.77;;
8540;SDS011;4308;51.294;6.590;2023-02-22T15:32:16;15.10;;;11.30;;
8540;SDS011;4308;51.294;6.590;2023-02-22T15:34:44;13.83;;;10.27;;
8540;SDS011;4308;51.294;6.590;2023-02-22T15:37:19;14.67;;;10.77;;
8540;SDS011;4308;51.294;6.590;2023-02-22T15:39:48;15.93;;;10.97;;
8540;SDS011;4308;51.294;6.590;2023-02-22T15:42:16;15.23;;;10.63;;
8540;SDS011;4308;51.294;6.590;2023-02-22T15:44:44;16.03;;;11.50;;
8540;SDS011;4308;51.294;6.590;2023-02-22T15:47:23;13.73;;;11.27;;
8540;SDS011;4308;51.294;6.590;2023-02-22T15:52:38;18.10;;;11.73;;
8540;SDS011;4308;51.294;6.590;2023-02-22T15:55:08;17.43;;;11.53;;
8540;SDS011;4308;51.294;6.590;2023-02-22T15:57:40;13.83;;;11.40;;
8540;SDS011;4308;51.294;6.590;2023-02-22T16:00:17;15.33;;;11.40;;
8540;SDS011;4308;51.294;6.590;2023-02-22T16:02:45;17.37;;;12.43;;
8540;SDS011;4308;51.294;6.590;2023-02-22T16:05:13;16.73;;;12.47;;
8540;SDS011;4308;51.294;6.590;2023-02-22T16:07:43;17.77;;;12.20;;
8540;SDS011;4308;51.294;6.590;2023-02-22T16:10:46;16.53;;;11.20;;
8540;SDS011;4308;51.294;6.590;2023-02-22T16:13:06;15.97;;;11.90;;
8540;SDS011;4308;51.294;6.590;2023-02-22T16:15:39;16.93;;;12.33;;
8540;SDS011;4308;51.294;6.590;2023-02-22T16:18:22;15.60;;;12.13;;
8540;SDS011;4308;51.294;6.590;2023-02-22T16:20:57;14.87;;;10.90;;
8540;SDS011;4308;51.294;6.590;2023-02-22T16:23:26;17.43;;;12.00;;
8540;SDS011;4308;51.294;6.590;2023-02-22T16:28:45;15.80;;;11.60;;
8540;SDS011;4308;51.294;6.590;2023-02-22T16:31:14;14.93;;;11.93;;
8540;SDS011;4308;51.294;6.590;2023-02-22T16:33:43;16.60;;;12.23;;
8540;SDS011;4308;51.294;6.590;2023-02-22T16:36:12;15.33;;;11.73;;
8540;SDS011;4308;51.294;6.590;2023-02-22T16:38:40;16.87;;;12.53;;
8540;SDS011;4308;51.294;6.590;2023-02-22T16:41:08;19.33;;;12.77;;
8540;SDS011;4308;51.294;6.590;2023-02-22T16:43:38;17.43;;;12.33;;
8540;SDS011;4308;51.294;6.590;2023-02-22T16:46:07;23.43;;;13.40;;
8540;SDS011;4308;51.294;6.590;2023-02-22T16:48:38;17.27;;;12.30;;
8540;SDS011;4308;51.294;6.590;2023-02-22T16:51:09;18.80;;;13.33;;
8540;SDS011;4308;51.294;6.590;2023-02-22T16:53:37;17.67;;;13.23;;
8540;SDS011;4308;51.294;6.590;2023-02-22T16:56:04;17.47;;;13.27;;
8540;SDS011;4308;51.294;6.590;2023-02-22T16:58:35;17.43;;;12.87;;
8540;SDS011;4308;51.294;6.590;2023-02-22T17:01:04;19.17;;;13.70;;
8540;SDS011;4308;51.294;6.590;2023-02-22T17:03:32;20.10;;;14.37;;
8540;SDS011;4308;51.294;6.590;2023-02-22T17:06:00;19.10;;;13.93;;
8540;SDS011;4308;51.294;6.590;2023-02-22T17:08:27;20.10;;;14.33;;
8540;SDS011;4308;51.294;6.590;2023-02-22T17:10:55;19.33;;;12.63;;
8540;SDS011;4308;51.294;6.590;2023-02-22T17:13:24;23.73;;;14.17;;
8540;SDS011;4308;51.294;6.590;2023-02-22T17:15:53;20.13;;;15.13;;
8540;SDS011;4308;51.294;6.590;2023-02-22T17:18:21;22.13;;;12.97;;
8540;SDS011;4308;51.294;6.590;2023-02-22T17:20:50;23.03;;;15.33;;
8540;SDS011;4308;51.294;6.590;2023-02-22T17:23:19;21.97;;;15.17;;
8540;SDS011;4308;51.294;6.590;2023-02-22T17:25:49;20.43;;;13.73;;